sensor_id;sensor_type;location;lat;lon;timestamp;pressure;altitude;pressure_sealevel;temperature;humidity
80726;BME280;70113;59.928;10.878;2023-06-22T17:40:16;98986.69;;;21.96;32.42
80726;BME280;70113;59.928;10.878;2023-06-22T17:42:43;98970.22;;;21.78;32.42
80726;BME280;70113;59.928;10.878;2023-06-22T17:47:42;98972.91;;;21.78;32.99
80726;BME280;70113;59.928;10.878;2023-06-22T17:50:08;98976.81;;;21.85;33.05
80726;BME280;70113;59.928;10.878;2023-06-22T17:52:34;98961.06;;;21.70;33.03
80726;BME280;70113;59.928;10.878;2023-06-22T17:55:02;98985.03;;;21.73;33.06
80726;BME280;70113;59.928;10.878;2023-06-22T17:57:36;98994.84;;;21.63;32.94
80726;BME280;70113;59.928;10.878;2023-06-22T18:00:07;98972.47;;;21.51;33.30
80726;BME280;70113;59.928;10.878;2023-06-22T18:02:42;98993.50;;;21.57;33.30
80726;BME280;70113;59.928;10.878;2023-06-22T18:05:09;98990.78;;;21.68;33.24
80726;BME280;70113;59.928;10.878;2023-06-22T18:07:35;99002.53;;;21.33;33.67
80726;BME280;70113;59.928;10.878;2023-06-22T18:10:06;98990.19;;;21.31;33.69
80726;BME280;70113;59.928;10.878;2023-06-22T18:12:33;98992.03;;;21.30;33.67
80726;BME280;70113;59.928;10.878;2023-06-22T18:15:00;98984.06;;;21.17;33.80
80726;BME280;70113;59.928;10.878;2023-06-22T18:17:26;98977.97;;;21.15;34.52
80726;BME280;70113;59.928;10.878;2023-06-22T18:19:54;98981.88;;;21.23;34.63
80726;BME280;70113;59.928;10.878;2023-06-22T18:22:21;98961.47;;;20.98;34.76
80726;BME280;70113;59.928;10.878;2023-06-22T18:24:48;98974.41;;;21.04;34.82
80726;BME280;70113;59.928;10.878;2023-06-22T18:27:15;98995.28;;;21.11;34.95
80726;BME280;70113;59.928;10.878;2023-06-22T18:29:41;98981.63;;;21.03;35.10
80726;BME280;70113;59.928;10.878;2023-06-22T18:32:11;98991.16;;;21.07;34.54
80726;BME280;70113;59.928;10.878;2023-06-22T18:34:40;98996.78;;;21.15;34.71
80726;BME280;70113;59.928;10.878;2023-06-22T18:37:08;98978.81;;;21.16;34.81
80726;BME280;70113;59.928;10.878;2023-06-22T18:39:41;98991.25;;;21.17;34.59
80726;BME280;70113;59.928;10.878;2023-06-22T18:42:09;98997.25;;;21.09;35.25
80726;BME280;70113;59.928;10.878;2023-06-22T18:44:34;99006.44;;;21.18;34.85
80726;BME280;70113;59.928;10.878;2023-06-22T18:47:02;98992.84;;;20.97;35.61
80726;BME280;70113;59.928;10.878;2023-06-22T18:49:45;99004.69;;;21.06;35.08
80726;BME280;70113;59.928;10.878;2023-06-22T18:52:24;99000.88;;;20.86;35.59
80726;BME280;70113;59.928;10.878;2023-06-22T18:54:50;99004.66;;;20.83;35.20
80726;BME280;70113;59.928;10.878;2023-06-22T18:57:29;99004.53;;;20.85;35.47
80726;BME280;70113;59.928;10.878;2023-06-22T19:10:24;99012.41;;;20.64;35.18
80726;BME280;70113;59.928;10.878;2023-06-22T19:12:55;99005.13;;;20.42;34.95
80726;BME280;70113;59.928;10.878;2023-06-22T19:15:21;99011.06;;;20.34;35.37
80726;BME280;70113;59.928;10.878;2023-06-22T19:17:47;99006.91;;;20.30;35.91
80726;BME280;70113;59.928;10.878;2023-06-22T19:20:18;99005.81;;;20.33;36.36
80726;BME280;70113;59.928;10.878;2023-06-22T19:22:56;98994.41;;;20.18;36.53
80726;BME280;70113;59.928;10.878;2023-06-22T19:25:27;99010.13;;;20.11;36.84
80726;BME280;70113;59.928;10.878;2023-06-22T19:27:53;99022.78;;;20.09;37.18
80726;BME280;70113;59.928;10.878;2023-06-22T19:30:21;99022.16;;;20.06;36.92
80726;BME280;70113;59.928;10.878;2023-06-22T19:32:51;99025.47;;;20.09;37.04
80726;BME280;70113;59.928;10.878;2023-06-22T19:35:18;99021.72;;;20.12;37.21
80726;BME280;70113;59.928;10.878;2023-06-22T19:37:46;99040.94;;;20.06;37.66
80726;BME280;70113;59.928;10.878;2023-06-22T19:40:12;99031.81;;;20.08;37.15
80726;BME280;70113;59.928;10.878;2023-06-22T19:42:43;99035.88;;;20.14;37.52
80726;BME280;70113;59.928;10.878;2023-06-22T19:45:13;99020.88;;;19.98;37.39
80726;BME280;70113;59.928;10.878;2023-06-22T19:47:39;99025.53;;;19.96;37.38
80726;BME280;70113;59.928;10.878;2023-06-22T19:50:05;99026.09;;;19.89;38.15
80726;BME280;70113;59.928;10.878;2023-06-22T19:55:01;99022.84;;;19.96;37.75
80726;BME280;70113;59.928;10.878;2023-06-22T19:57:36;99034.50;;;19.71;38.46
80726;BME280;70113;59.928;10.878;2023-06-22T20:00:03;99024.31;;;19.64;38.59
80726;BME280;70113;59.928;10.878;2023-06-22T20:02:39;99042.94;;;19.91;38.21
80726;BME280;70113;59.928;10.878;2023-06-22T20:05:06;99041.06;;;19.42;39.09
80726;BME280;70113;59.928;10.878;2023-06-22T20:07:42;99045.78;;;19.38;39.58
80726;BME280;70113;59.928;10.878;2023-06-22T20:12:34;99049.31;;;19.51;39.70
80726;BME280;70113;59.928;10.878;2023-06-22T20:15:25;99040.41;;;19.51;40.43
80726;BME280;70113;59.928;10.878;2023-06-22T20:18:01;99036.31;;;19.45;40.66
80726;BME280;70113;59.928;10.878;2023-06-22T20:20:31;99048.47;;;19.38;40.11
80726;BME280;70113;59.928;10.878;2023-06-22T20:22:59;99046.31;;;19.18;40.42
80726;BME280;70113;59.928;10.878;2023-06-22T20:25:25;99054.78;;;18.99;40.83
80726;BME280;70113;59.928;10.878;2023-06-22T20:27:52;99055.34;;;19.04;40.48
80726;BME280;70113;59.928;10.878;2023-06-22T20:30:19;99056.94;;;19.06;40.32
80726;BME280;70113;59.928;10.878;2023-06-22T20:32:55;99070.97;;;18.97;40.65
80726;BME280;70113;59.928;10.878;2023-06-22T20:35:22;99060.56;;;19.05;40.62
80726;BME280;70113;59.928;10.878;2023-06-22T20:37:51;99045.44;;;18.79;40.94
80726;BME280;70113;59.928;10.878;2023-06-22T20:40:21;99060.38;;;18.83;41.25
80726;BME280;70113;59.928;10.878;2023-06-22T20:45:19;99068.94;;;19.01;40.87
80726;BME280;70113;59.928;10.878;2023-06-22T20:47:45;99072.22;;;18.92;41.00
80726;BME280;70113;59.928;10.878;2023-06-22T20:50:11;99063.22;;;18.80;41.07
80726;BME280;70113;59.928;10.878;2023-06-22T20:52:37;99059.56;;;18.68;41.17
80726;BME280;70113;59.928;10.878;2023-06-22T20:55:05;99069.16;;;18.71;41.47
80726;BME280;70113;59.928;10.878;2023-06-22T20:57:31;99065.28;;;18.62;41.52
80726;BME280;70113;59.928;10.878;2023-06-22T20:59:57;99074.25;;;18.48;41.51
80726;BME280;70113;59.928;10.878;2023-06-22T21:02:24;99036.50;;;18.26;42.42
80726;BME280;70113;59.928;10.878;2023-06-22T21:04:50;99067.59;;;18.41;42.32
80726;BME280;70113;59.928;10.878;2023-06-22T21:07:16;99071.41;;;18.24;42.91
80726;BME280;70113;59.928;10.878;2023-06-22T21:09:42;99073.31;;;18.62;41.97
80726;BME280;70113;59.928;10.878;2023-06-22T21:12:08;99075.69;;;18.66;41.59
80726;BME280;70113;59.928;10.878;2023-06-22T21:14:34;99069.41;;;18.40;43.92
80726;BME280;70113;59.928;10.878;2023-06-22T21:16:59;99079.06;;;18.43;42.76
80726;BME280;70113;59.928;10.878;2023-06-22T21:19:25;99068.34;;;18.43;41.50
80726;BME280;70113;59.928;10.878;2023-06-22T21:21:51;99072.88;;;18.01;42.41
80726;BME280;70113;59.928;10.878;2023-06-22T21:24:16;99068.84;;;18.08;42.56
80726;BME280;70113;59.928;10.878;2023-06-22T21:26:42;99063.09;;;18.14;42.54
80726;BME280;70113;59.928;10.878;2023-06-22T21:29:08;99073.13;;;18.11;42.91
80726;BME280;70113;59.928;10.878;2023-06-22T21:31:34;99036.53;;;17.84;43.62
80726;BME280;70113;59.928;10.878;2023-06-22T21:34:00;99074.13;;;17.95;43.13
80726;BME280;70113;59.928;10.878;2023-06-22T21:36:26;99071.97;;;17.73;43.23
80726;BME280;70113;59.928;10.878;2023-06-22T21:38:51;99074.06;;;17.97;43.24
80726;BME280;70113;59.928;10.878;2023-06-22T21:41:18;99072.19;;;17.85;43.32
80726;BME280;70113;59.928;10.878;2023-06-22T21:43:43;99072.44;;;17.80;43.58
80726;BME280;70113;59.928;10.878;2023-06-22T21:46:09;99081.75;;;18.02;43.19
80726;BME280;70113;59.928;10.878;2023-06-22T21:48:35;99088.38;;;17.82;45.41
80726;BME280;70113;59.928;10.878;2023-06-22T21:51:01;99081.25;;;17.82;44.44
80726;BME280;70113;59.928;10.878;2023-06-22T21:53:26;99071.00;;;17.60;44.15
80726;BME280;70113;59.928;10.878;2023-06-22T21:55:53;99083.22;;;17.79;44.26
80726;BME280;70113;59.928;10.878;2023-06-22T21:58:19;99080.00;;;17.59;44.22
80726;BME280;70113;59.928;10.878;2023-06-22T22:00:53;99082.66;;;17.45;44.87
80726;BME280;70113;59.928;10.878;2023-06-22T22:03:25;99087.53;;;17.38;44.64
80726;BME280;70113;59.928;10.878;2023-06-22T22:05:55;99096.03;;;17.59;44.57
80726;BME280;70113;59.928;10.878;2023-06-22T22:08:21;99091.91;;;17.53;45.27
80726;BME280;70113;59.928;10.878;2023-06-22T22:10:47;99097.94;;;17.28;44.98
80726;BME280;70113;59.928;10.878;2023-06-22T22:13:13;99100.03;;;17.52;45.32
80726;BME280;70113;59.928;10.878;2023-06-22T22:15:39;99085.03;;;17.64;45.08
80726;BME280;70113;59.928;10.878;2023-06-22T22:18:05;99074.25;;;17.08;45.79
80726;BME280;70113;59.928;10.878;2023-06-22T22:20:34;99092.41;;;17.31;45.27
80726;BME280;70113;59.928;10.878;2023-06-22T22:23:00;99107.28;;;17.50;46.70
80726;BME280;70113;59.928;10.878;2023-06-22T22:25:26;99100.22;;;17.35;46.68
80726;BME280;70113;59.928;10.878;2023-06-22T22:27:52;99113.78;;;17.31;47.33
80726;BME280;70113;59.928;10.878;2023-06-22T22:30:18;99109.56;;;17.42;48.83
80726;BME280;70113;59.928;10.878;2023-06-22T22:32:44;99112.44;;;17.53;46.94
80726;BME280;70113;59.928;10.878;2023-06-22T22:35:11;99104.50;;;17.51;47.10
80726;BME280;70113;59.928;10.878;2023-06-22T22:37:40;99093.91;;;17.21;49.75
80726;BME280;70113;59.928;10.878;2023-06-22T22:40:06;99104.00;;;17.16;48.30
80726;BME280;70113;59.928;10.878;2023-06-22T22:42:38;99101.50;;;16.99;48.03
80726;BME280;70113;59.928;10.878;2023-06-22T22:45:05;99104.66;;;17.05;50.89
80726;BME280;70113;59.928;10.878;2023-06-22T22:47:33;99109.84;;;16.78;50.64
80726;BME280;70113;59.928;10.878;2023-06-22T22:50:00;99113.16;;;16.52;51.07
80726;BME280;70113;59.928;10.878;2023-06-22T22:52:27;99107.31;;;16.75;50.21
80726;BME280;70113;59.928;10.878;2023-06-22T22:54:54;99105.75;;;16.71;48.94
80726;BME280;70113;59.928;10.878;2023-06-22T22:57:20;99080.81;;;16.72;52.11
80726;BME280;70113;59.928;10.878;2023-06-22T22:59:46;99109.66;;;16.81;49.33
80726;BME280;70113;59.928;10.878;2023-06-22T23:02:12;99114.66;;;16.56;52.47
80726;BME280;70113;59.928;10.878;2023-06-22T23:04:38;99109.66;;;16.66;50.76
80726;BME280;70113;59.928;10.878;2023-06-22T23:07:04;99097.22;;;16.50;49.62
80726;BME280;70113;59.928;10.878;2023-06-22T23:09:30;99100.97;;;16.62;51.56
80726;BME280;70113;59.928;10.878;2023-06-22T23:11:56;99111.56;;;16.79;50.41
80726;BME280;70113;59.928;10.878;2023-06-22T23:14:22;99108.22;;;16.60;48.14
80726;BME280;70113;59.928;10.878;2023-06-22T23:16:47;99104.84;;;16.56;48.89
80726;BME280;70113;59.928;10.878;2023-06-22T23:19:13;99094.34;;;16.53;50.54
80726;BME280;70113;59.928;10.878;2023-06-22T23:21:39;99106.06;;;16.67;53.52
80726;BME280;70113;59.928;10.878;2023-06-22T23:24:05;99100.66;;;16.52;51.35
80726;BME280;70113;59.928;10.878;2023-06-22T23:26:32;99110.00;;;15.98;50.80
80726;BME280;70113;59.928;10.878;2023-06-22T23:28:59;99106.09;;;16.35;52.61
80726;BME280;70113;59.928;10.878;2023-06-22T23:31:25;99083.50;;;16.10;53.26
80726;BME280;70113;59.928;10.878;2023-06-22T23:33:51;99098.13;;;16.03;53.99
80726;BME280;70113;59.928;10.878;2023-06-22T23:36:17;99110.75;;;16.00;53.89
80726;BME280;70113;59.928;10.878;2023-06-22T23:38:43;99108.13;;;15.66;54.22
80726;BME280;70113;59.928;10.878;2023-06-22T23:41:09;99095.97;;;15.61;55.65
80726;BME280;70113;59.928;10.878;2023-06-22T23:43:37;99097.41;;;15.68;55.61
80726;BME280;70113;59.928;10.878;2023-06-22T23:46:04;99092.63;;;15.57;56.98
80726;BME280;70113;59.928;10.878;2023-06-22T23:48:30;99103.34;;;15.73;57.19
80726;BME280;70113;59.928;10.878;2023-06-22T23:50:56;99094.00;;;15.48;57.59
80726;BME280;70113;59.928;10.878;2023-06-22T23:53:26;99081.53;;;15.16;57.27
80726;BME280;70113;59.928;10.878;2023-06-22T23:55:52;99088.13;;;15.42;58.71
80726;BME280;70113;59.928;10.878;2023-06-22T23:58:18;99091.78;;;15.57;58.33
